Big Bear Station Historical Data
Daily Summary for March 17, 2017 Units:  English    Metric   Both
« Previous Day
Next Day »
Daily Weekly Monthly Yearly Custom
  High: Low: Average:
Temperature: 65.8 °F 32.9 °F 47.3 °F
Dew Point: 41.2 °F 29.7 °F 35.8 °F
Humidity: 97 % 29 % 70 %
Wind Speed: 7.3 mph 0.0 mph 1.4 mph
Wind Gust: -999.0 mph - -
Wind:- - West
Pressure: 30.31 in 30.27 in -
Precipitation: 0.00 in    
Historical Graphs
 
 
Tabular Data for March 17, 2017
Time Temperature Dew Point Pressure Wind Wind Speed Wind Gust Humidity Rainfall Rate (Hourly)
00:14 37.9 °F 35.5 °F 30.31 in Calm   -999.0 mph 91 % 0 in
00:29 37.8 °F 35.4 °F 30.31 in Calm   -999.0 mph 91 % 0 in
00:45 37.8 °F 35.4 °F 30.30 in Calm   -999.0 mph 91 % 0 in
01:00 37.6 °F 35.5 °F 30.30 in Calm   -999.0 mph 92 % 0 in
01:15 37.2 °F 35.4 °F 30.30 in Calm   -999.0 mph 93 % 0 in
01:30 37.0 °F 35.4 °F 30.30 in Calm   -999.0 mph 94 % 0 in
01:45 37.0 °F 35.4 °F 30.30 in Calm   -999.0 mph 94 % 0 in
02:01 36.5 °F 34.9 °F 30.30 in Calm   -999.0 mph 94 % 0 in
02:16 36.7 °F 35.7 °F 30.30 in Calm   -999.0 mph 96 % 0 in
02:31 36.5 °F 35.5 °F 30.29 in Calm   -999.0 mph 96 % 0 in
02:46 36.3 °F 35.3 °F 30.29 in Calm   -999.0 mph 96 % 0 in
03:01 36.1 °F 35.3 °F 30.29 in Calm   -999.0 mph 97 % 0 in
03:17 36.0 °F 35.2 °F 30.29 in Calm   -999.0 mph 97 % 0 in
03:32 36.0 °F 35.2 °F 30.28 in Calm   -999.0 mph 97 % 0 in
03:47 35.4 °F 34.6 °F 30.28 in Calm   -999.0 mph 97 % 0 in
04:02 35.2 °F 34.4 °F 30.28 in Calm   -999.0 mph 97 % 0 in
04:17 34.9 °F 33.6 °F 30.28 in Calm   -999.0 mph 95 % 0 in
04:33 35.1 °F 34.1 °F 30.27 in Calm   -999.0 mph 96 % 0 in
04:48 34.9 °F 33.9 °F 30.27 in Calm   -999.0 mph 96 % 0 in
05:03 34.5 °F 33.5 °F 30.28 in Calm   -999.0 mph 96 % 0 in
05:18 34.0 °F 32.5 °F 30.27 in Calm   -999.0 mph 94 % 0 in
05:33 33.8 °F 31.7 °F 30.27 in Calm   -999.0 mph 92 % 0 in
05:49 33.3 °F 30.7 °F 30.28 in Calm   -999.0 mph 90 % 0 in
06:04 33.1 °F 30.5 °F 30.28 in Calm   -999.0 mph 90 % 0 in
06:19 33.1 °F 30.5 °F 30.28 in Calm   -999.0 mph 90 % 0 in
06:34 33.1 °F 30.5 °F 30.28 in Calm   -999.0 mph 90 % 0 in
06:50 33.3 °F 30.7 °F 30.28 in Calm   -999.0 mph 90 % 0 in
07:05 33.1 °F 30.8 °F 30.28 in Calm   -999.0 mph 91 % 0 in
07:20 33.4 °F 31.3 °F 30.29 in Calm   -999.0 mph 92 % 0 in
07:35 32.9 °F 30.8 °F 30.29 in Calm   -999.0 mph 92 % 0 in
07:50 34.0 °F 31.4 °F 30.29 in Calm   -999.0 mph 90 % 0 in
08:06 34.0 °F 31.9 °F 30.29 in Calm   -999.0 mph 92 % 0 in
08:21 36.0 °F 33.4 °F 30.29 in Calm   -999.0 mph 90 % 0 in
08:36 37.0 °F 33.8 °F 30.30 in Calm   -999.0 mph 88 % 0 in
08:51 37.4 °F 35.0 °F 30.30 in Calm   -999.0 mph 91 % 0 in
09:06 38.1 °F 35.4 °F 30.30 in Calm   -999.0 mph 90 % 0 in
09:22 39.4 °F 35.3 °F 30.30 in Calm   -999.0 mph 85 % 0 in
09:37 41.0 °F 36.5 °F 30.30 in Calm   -999.0 mph 84 % 0 in
09:52 43.5 °F 38.4 °F 30.30 in Calm   -999.0 mph 82 % 0 in
10:07 47.3 °F 36.9 °F 30.30 in NW 2.2 mph -999.0 mph 67 % 0 in
10:22 52.3 °F 33.2 °F 30.30 in North 1.7 mph -999.0 mph 48 % 0 in
10:38 55.8 °F 31.8 °F 30.30 in WNW 1.7 mph -999.0 mph 40 % 0 in
10:53 59.4 °F 31.0 °F 30.30 in WNW 3.2 mph -999.0 mph 34 % 0 in
11:08 61.5 °F 29.8 °F 30.30 in WNW 1.7 mph -999.0 mph 30 % 0 in
11:23 62.4 °F 29.7 °F 30.30 in ESE 1.7 mph -999.0 mph 29 % 0 in
11:38 63.0 °F 30.2 °F 30.29 in North 3.7 mph -999.0 mph 29 % 0 in
11:54 63.7 °F 30.8 °F 30.30 in NNW 2.2 mph -999.0 mph 29 % 0 in
12:09 64.4 °F 31.4 °F 30.29 in WNW 5.8 mph -999.0 mph 29 % 0 in
12:24 64.4 °F 33.1 °F 30.29 in NNW 3.2 mph -999.0 mph 31 % 0 in
12:39 65.5 °F 34.1 °F 30.29 in West 4.2 mph -999.0 mph 31 % 0 in
12:55 64.9 °F 36.6 °F 30.29 in NW 6.8 mph -999.0 mph 35 % 0 in
13:10 65.3 °F 36.9 °F 30.28 in WNW 3.7 mph -999.0 mph 35 % 0 in
13:25 65.5 °F 37.1 °F 30.28 in NW 5.3 mph -999.0 mph 35 % 0 in
13:40 65.5 °F 37.1 °F 30.28 in NW 5.8 mph -999.0 mph 35 % 0 in
13:56 65.8 °F 37.4 °F 30.28 in NNW 4.2 mph -999.0 mph 35 % 0 in
14:11 64.8 °F 39.3 °F 30.27 in NW 4.7 mph -999.0 mph 39 % 0 in
14:26 64.8 °F 40.5 °F 30.27 in ENE 5.3 mph -999.0 mph 41 % 0 in
14:42 64.2 °F 40.0 °F 30.27 in West 2.7 mph -999.0 mph 41 % 0 in
14:57 62.8 °F 39.4 °F 30.27 in NW 5.3 mph -999.0 mph 42 % 0 in
15:12 63.0 °F 38.9 °F 30.27 in WNW 2.7 mph -999.0 mph 41 % 0 in
15:27 62.8 °F 40.0 °F 30.27 in NW 2.2 mph -999.0 mph 43 % 0 in
15:43 62.8 °F 39.4 °F 30.27 in NW 7.3 mph -999.0 mph 42 % 0 in
15:59 63.3 °F 39.2 °F 30.27 in WNW 2.7 mph -999.0 mph 41 % 0 in
16:14 62.8 °F 38.7 °F 30.27 in NW 2.2 mph -999.0 mph 41 % 0 in
16:30 62.4 °F 40.2 °F 30.27 in NNW 3.2 mph -999.0 mph 44 % 0 in
16:45 62.2 °F 40.0 °F 30.27 in WNW 2.7 mph -999.0 mph 44 % 0 in
17:00 61.7 °F 40.1 °F 30.27 in NNW 3.2 mph -999.0 mph 45 % 0 in
17:16 61.3 °F 40.9 °F 30.27 in WNW 1.7 mph -999.0 mph 47 % 0 in
17:31 61.9 °F 40.3 °F 30.27 in North 1.7 mph -999.0 mph 45 % 0 in
17:47 61.0 °F 41.2 °F 30.27 in NNW 1.7 mph -999.0 mph 48 % 0 in
18:02 59.4 °F 40.8 °F 30.27 in West 1.7 mph -999.0 mph 50 % 0 in
18:17 58.1 °F 40.6 °F 30.27 in Calm   -999.0 mph 52 % 0 in
18:32 56.5 °F 40.1 °F 30.27 in Calm   -999.0 mph 54 % 0 in
18:49 54.5 °F 40.9 °F 30.27 in South 1.7 mph -999.0 mph 60 % 0 in
19:04 52.9 °F 40.6 °F 30.27 in SSE 1.7 mph -999.0 mph 63 % 0 in
19:19 50.9 °F 40.3 °F 30.27 in SSW 2.2 mph -999.0 mph 67 % 0 in
19:34 49.8 °F 40.4 °F 30.27 in SSW 2.2 mph -999.0 mph 70 % 0 in
19:49 48.4 °F 39.8 °F 30.27 in South 1.7 mph -999.0 mph 72 % 0 in
20:05 47.5 °F 38.9 °F 30.28 in Calm   -999.0 mph 72 % 0 in
20:20 46.6 °F 38.4 °F 30.28 in South 1.7 mph -999.0 mph 73 % 0 in
20:35 45.9 °F 37.7 °F 30.28 in SSW 1.7 mph -999.0 mph 73 % 0 in
20:50 45.0 °F 37.6 °F 30.28 in Calm   -999.0 mph 75 % 0 in
21:06 44.2 °F 37.1 °F 30.29 in South 2.7 mph -999.0 mph 76 % 0 in
21:21 43.3 °F 36.2 °F 30.29 in Calm   -999.0 mph 76 % 0 in
21:36 42.8 °F 36.1 °F 30.29 in Calm   -999.0 mph 77 % 0 in
21:51 42.4 °F 35.7 °F 30.29 in SSW 2.2 mph -999.0 mph 77 % 0 in
22:06 42.1 °F 36.1 °F 30.29 in South 2.7 mph -999.0 mph 79 % 0 in
22:22 41.7 °F 36.0 °F 30.29 in Calm   -999.0 mph 80 % 0 in
22:37 41.4 °F 36.0 °F 30.29 in South 2.2 mph -999.0 mph 81 % 0 in
22:52 40.6 °F 34.9 °F 30.29 in Calm   -999.0 mph 80 % 0 in
23:08 40.3 °F 35.2 °F 30.29 in South 1.7 mph -999.0 mph 82 % 0 in
23:23 40.3 °F 36.2 °F 30.30 in SSW 1.1 mph -999.0 mph 85 % 0 in
23:38 39.9 °F 36.3 °F 30.29 in SSE 1.7 mph -999.0 mph 87 % 0 in
23:53 39.6 °F 36.1 °F 30.30 in Calm   -999.0 mph 87 % 0 in
Big Bear CA Weather
Compliments of Weather Underground - 1.5 mb